createdAt,value
2023-05-13T00:00:26.953Z,67.32
2023-05-13T00:03:12.455Z,67.39
2023-05-13T00:05:57.929Z,67.41
2023-05-13T00:08:43.848Z,67.29
2023-05-13T00:11:29.632Z,66.98
2023-05-13T00:14:15.505Z,66.83
2023-05-13T00:17:03.606Z,66.62
2023-05-13T00:19:49.030Z,66.98
2023-05-13T00:22:35.964Z,66.19
2023-05-13T00:25:21.079Z,65.59
2023-05-13T00:28:06.636Z,65.90
2023-05-13T00:30:52.441Z,65.78
2023-05-13T00:33:38.601Z,66.05
2023-05-13T00:36:26.821Z,66.46
2023-05-13T00:39:13.569Z,65.74
2023-05-13T00:41:58.918Z,65.75
2023-05-13T00:44:44.569Z,64.83
2023-05-13T00:47:30.455Z,64.76
2023-05-13T00:50:15.828Z,64.82
2023-05-13T00:53:03.047Z,65.25
2023-05-13T00:55:48.743Z,65.07
2023-05-13T00:58:34.416Z,64.62
2023-05-13T01:02:01.926Z,65.18
2023-05-13T01:04:53.635Z,65.70
2023-05-13T01:07:49.854Z,65.77
2023-05-13T01:10:49.502Z,65.33
2023-05-13T01:13:42.500Z,65.30
2023-05-13T01:16:45.861Z,65.63
2023-05-13T01:19:54.036Z,65.56
2023-05-13T01:22:39.889Z,65.76
2023-05-13T01:25:26.220Z,65.47
2023-05-13T01:28:11.725Z,64.99
2023-05-13T01:30:58.091Z,64.61
2023-05-13T01:33:44.416Z,64.52
2023-05-13T01:36:31.569Z,64.28
2023-05-13T01:39:19.607Z,63.96
2023-05-13T01:42:05.789Z,63.75
2023-05-13T01:44:51.733Z,63.51
2023-05-13T01:47:37.214Z,64.02
2023-05-13T01:50:23.110Z,63.80
2023-05-13T01:53:08.946Z,63.63
2023-05-13T01:55:54.527Z,63.53
2023-05-13T01:58:40.548Z,63.77
2023-05-13T02:01:26.342Z,64.03
2023-05-13T02:04:11.931Z,63.49
2023-05-13T02:07:00.302Z,63.12
2023-05-13T02:09:48.138Z,62.93
2023-05-13T02:12:33.421Z,62.57
2023-05-13T02:15:18.990Z,62.86
2023-05-13T02:18:04.672Z,63.09
2023-05-13T02:20:50.689Z,63.02
2023-05-13T02:23:36.064Z,63.27
2023-05-13T02:26:21.598Z,64.00
2023-05-13T02:29:07.641Z,64.20
2023-05-13T02:31:55.114Z,64.43
2023-05-13T02:34:41.048Z,64.48
2023-05-13T02:37:26.862Z,63.85
2023-05-13T02:40:16.596Z,63.70
2023-05-13T02:43:04.409Z,63.00
2023-05-13T02:46:04.534Z,63.33
2023-05-13T02:48:50.574Z,62.87
2023-05-13T02:51:36.153Z,62.47
2023-05-13T02:54:22.820Z,62.50
2023-05-13T02:57:08.359Z,62.75
2023-05-13T02:59:54.056Z,63.00
2023-05-13T03:02:39.692Z,62.99
2023-05-13T03:05:26.443Z,62.33
2023-05-13T03:08:13.719Z,62.20
2023-05-13T03:11:00.857Z,61.62
2023-05-13T03:13:46.246Z,61.61
2023-05-13T03:16:33.035Z,61.02
2023-05-13T03:19:18.326Z,60.63
2023-05-13T03:22:05.554Z,60.69
2023-05-13T03:24:51.349Z,60.74
2023-05-13T03:27:38.430Z,60.99
2023-05-13T03:30:24.210Z,61.38
2023-05-13T03:33:20.536Z,61.27
2023-05-13T03:36:06.606Z,61.13
2023-05-13T03:38:53.266Z,60.71
2023-05-13T03:41:39.317Z,60.13
2023-05-13T03:44:25.060Z,60.16
2023-05-13T03:47:10.774Z,60.36
2023-05-13T03:49:56.917Z,60.57
2023-05-13T03:52:44.909Z,60.98
2023-05-13T03:55:32.490Z,61.23
2023-05-13T03:58:22.042Z,61.30
2023-05-13T04:01:07.853Z,60.92
2023-05-13T04:03:54.415Z,61.10
2023-05-13T04:06:39.666Z,60.30
2023-05-13T04:09:25.351Z,60.00
2023-05-13T04:12:10.735Z,59.86
2023-05-13T04:14:56.109Z,59.90
2023-05-13T04:17:42.604Z,60.36
2023-05-13T04:20:28.654Z,59.85
2023-05-13T04:23:14.286Z,59.55
2023-05-13T04:25:59.685Z,59.02
2023-05-13T04:28:45.142Z,58.36
2023-05-13T04:31:31.327Z,57.88
2023-05-13T04:34:17.020Z,57.59
2023-05-13T04:37:02.772Z,57.05
2023-05-13T04:39:49.497Z,56.26
2023-05-13T04:42:36.803Z,54.38
2023-05-13T04:45:23.692Z,53.34
2023-05-13T04:48:09.754Z,53.33
2023-05-13T04:50:55.727Z,51.01
2023-05-13T04:53:41.729Z,50.21
2023-05-13T04:56:28.159Z,49.47
2023-05-13T04:59:14.245Z,49.12
2023-05-13T05:01:59.785Z,48.14
2023-05-13T05:04:45.787Z,48.07
2023-05-13T05:07:33.509Z,47.11
2023-05-13T05:10:19.280Z,46.86
2023-05-13T05:13:12.639Z,46.58
2023-05-13T05:15:57.842Z,46.43
2023-05-13T05:18:43.852Z,46.10
2023-05-13T05:21:29.482Z,45.96
2023-05-13T05:24:15.139Z,45.57
2023-05-13T05:27:00.547Z,45.45
2023-05-13T05:29:46.111Z,45.91
2023-05-13T05:32:32.188Z,45.87
2023-05-13T05:35:19.247Z,45.43
2023-05-13T05:38:06.430Z,44.65
2023-05-13T05:40:52.383Z,44.62
2023-05-13T05:43:38.129Z,43.95
2023-05-13T05:46:23.773Z,43.01
2023-05-13T05:49:09.498Z,41.70
2023-05-13T05:51:55.209Z,41.15
2023-05-13T05:54:40.988Z,40.93
2023-05-13T05:57:27.367Z,39.55
2023-05-13T06:00:16.529Z,39.13
2023-05-13T06:03:01.984Z,39.61
2023-05-13T06:05:50.304Z,39.18
2023-05-13T06:08:37.334Z,38.21
2023-05-13T06:11:22.979Z,37.74
2023-05-13T06:14:08.795Z,37.42
2023-05-13T06:16:55.969Z,37.35
2023-05-13T06:19:44.679Z,37.02
2023-05-13T06:22:30.162Z,36.81
2023-05-13T06:25:16.463Z,36.88
2023-05-13T06:28:03.127Z,36.50
2023-05-13T06:30:48.734Z,35.71
2023-05-13T06:33:34.244Z,35.66
2023-05-13T06:36:21.394Z,35.42
2023-05-13T06:39:06.884Z,35.37
2023-05-13T06:41:54.186Z,35.87
2023-05-13T06:44:41.161Z,34.95
2023-05-13T06:47:26.659Z,33.98
2023-05-13T06:50:12.253Z,34.26
2023-05-13T06:52:58.117Z,34.52
2023-05-13T06:55:44.780Z,34.78
2023-05-13T06:58:31.448Z,33.82
2023-05-13T07:01:17.097Z,33.76
2023-05-13T07:04:03.022Z,33.53
2023-05-13T07:06:48.525Z,33.23
2023-05-13T07:09:34.064Z,33.32
2023-05-13T07:12:19.616Z,32.88
2023-05-13T07:15:06.274Z,32.57
2023-05-13T07:17:51.541Z,32.83
2023-05-13T07:20:37.079Z,32.24
2023-05-13T07:23:23.638Z,32.56
2023-05-13T07:26:09.331Z,32.32
2023-05-13T07:28:56.356Z,32.45
2023-05-13T07:31:41.817Z,32.20
2023-05-13T07:34:27.197Z,32.22
2023-05-13T07:37:12.865Z,31.95
2023-05-13T07:39:58.302Z,30.56
2023-05-13T07:42:43.786Z,31.49
2023-05-13T07:45:29.252Z,30.75
2023-05-13T07:48:14.870Z,31.37
2023-05-13T07:51:01.043Z,31.39
2023-05-13T07:53:49.125Z,31.07
2023-05-13T07:56:34.481Z,30.59
2023-05-13T07:59:22.235Z,30.22
2023-05-13T08:02:08.240Z,29.31
2023-05-13T08:04:54.167Z,29.72
2023-05-13T08:07:39.911Z,30.34
2023-05-13T08:10:25.280Z,29.33
2023-05-13T08:13:10.824Z,28.05
2023-05-13T08:15:59.229Z,28.94
2023-05-13T08:18:44.511Z,28.80
2023-05-13T08:21:29.810Z,29.07
2023-05-13T08:24:15.397Z,29.49
2023-05-13T08:27:00.983Z,29.93
2023-05-13T08:29:46.213Z,30.20
2023-05-13T08:32:31.880Z,30.21
2023-05-13T08:35:17.251Z,29.85
2023-05-13T08:38:06.076Z,29.14
2023-05-13T08:40:53.427Z,29.77
2023-05-13T08:43:40.073Z,29.01
2023-05-13T08:46:28.342Z,28.70
2023-05-13T08:49:13.997Z,29.78
2023-05-13T08:52:00.217Z,30.20
2023-05-13T08:54:48.229Z,30.20
2023-05-13T08:57:34.135Z,31.19
2023-05-13T09:00:21.390Z,30.86
2023-05-13T09:03:08.707Z,31.22
2023-05-13T09:05:54.469Z,31.08
2023-05-13T09:08:40.420Z,30.90
2023-05-13T09:11:27.823Z,30.56
2023-05-13T09:14:13.716Z,30.57
2023-05-13T09:17:00.529Z,30.53
2023-05-13T09:19:47.055Z,30.10
2023-05-13T09:22:32.787Z,29.71
2023-05-13T09:25:20.969Z,28.50
2023-05-13T09:28:08.254Z,29.71
2023-05-13T09:30:56.320Z,30.16
2023-05-13T09:33:51.885Z,31.23
2023-05-13T09:36:37.727Z,31.93
2023-05-13T09:39:23.757Z,32.24
2023-05-13T09:42:16.154Z,31.73
2023-05-13T09:45:05.890Z,30.65
2023-05-13T09:47:53.927Z,30.46
2023-05-13T09:50:49.193Z,30.50
2023-05-13T09:53:34.765Z,29.80
2023-05-13T09:56:23.473Z,29.61
2023-05-13T09:59:08.982Z,29.49
2023-05-13T10:01:56.563Z,27.88
2023-05-13T10:04:43.110Z,26.24
2023-05-13T10:07:30.120Z,25.37
2023-05-13T10:10:15.398Z,25.91
2023-05-13T10:13:10.186Z,24.15
2023-05-13T10:15:56.383Z,23.72
2023-05-13T10:18:41.912Z,24.38
2023-05-13T10:21:27.837Z,24.01
2023-05-13T10:24:13.698Z,23.81
2023-05-13T10:27:01.316Z,24.40
2023-05-13T10:29:47.620Z,23.79
2023-05-13T10:32:34.225Z,23.82
2023-05-13T10:35:22.830Z,23.63
2023-05-13T10:38:24.865Z,23.53
2023-05-13T10:41:38.796Z,23.55
2023-05-13T10:44:24.411Z,23.16
2023-05-13T10:47:10.746Z,23.22
2023-05-13T10:49:57.873Z,22.43
2023-05-13T10:52:47.316Z,22.67
2023-05-13T10:55:40.749Z,22.32
2023-05-13T10:58:31.716Z,22.44
2023-05-13T11:01:43.323Z,23.52
2023-05-13T11:04:29.613Z,24.02
2023-05-13T11:07:16.134Z,23.27
2023-05-13T11:10:01.764Z,22.66
2023-05-13T11:13:16.614Z,23.59
2023-05-13T11:16:05.847Z,24.39
2023-05-13T11:18:52.397Z,24.35
2023-05-13T11:21:40.792Z,24.31
2023-05-13T11:24:26.272Z,24.92
2023-05-13T11:27:19.306Z,26.93
2023-05-13T11:30:21.467Z,28.69
2023-05-13T11:33:11.702Z,30.77
2023-05-13T11:35:57.910Z,32.06
2023-05-13T11:38:43.506Z,31.16
2023-05-13T11:41:32.307Z,31.60
2023-05-13T11:44:21.310Z,30.38
2023-05-13T11:47:07.645Z,28.77
2023-05-13T11:49:53.155Z,27.58
2023-05-13T11:52:38.872Z,25.98
2023-05-13T11:55:28.676Z,25.98
2023-05-13T11:58:15.748Z,24.50
2023-05-13T12:01:01.114Z,24.63
2023-05-13T12:03:47.093Z,23.92
2023-05-13T12:06:32.951Z,23.08
2023-05-13T12:09:22.901Z,23.67
2023-05-13T12:12:08.736Z,25.24
2023-05-13T12:14:56.166Z,24.39
2023-05-13T12:17:42.484Z,24.64
2023-05-13T12:20:27.536Z,29.41
2023-05-13T12:23:13.546Z,29.16
2023-05-13T12:26:00.302Z,27.89
2023-05-13T12:28:45.697Z,30.21
2023-05-13T12:31:31.189Z,28.73
2023-05-13T12:34:30.252Z,27.63
2023-05-13T12:37:17.639Z,29.04
2023-05-13T12:40:10.556Z,29.94
2023-05-13T12:42:58.154Z,29.52
2023-05-13T12:45:46.840Z,31.31
2023-05-13T12:48:32.968Z,32.41
2023-05-13T12:51:18.432Z,33.50
2023-05-13T12:54:04.121Z,34.30
2023-05-13T12:56:49.737Z,33.63
2023-05-13T12:59:35.918Z,34.82
2023-05-13T13:02:23.537Z,35.92
2023-05-13T13:05:08.979Z,36.48
2023-05-13T13:07:54.288Z,37.00
2023-05-13T13:10:39.616Z,37.63
2023-05-13T13:13:25.045Z,38.37
2023-05-13T13:16:11.139Z,38.77
2023-05-13T13:18:59.177Z,38.95
2023-05-13T13:21:46.810Z,39.44
2023-05-13T13:24:33.361Z,38.83
2023-05-13T13:27:19.274Z,39.07
2023-05-13T13:30:05.531Z,39.36
2023-05-13T13:32:50.948Z,40.10
2023-05-13T13:35:36.396Z,40.91
2023-05-13T13:38:21.860Z,41.44
2023-05-13T13:41:07.198Z,41.94
2023-05-13T13:43:52.570Z,42.11
2023-05-13T13:46:38.216Z,42.16
2023-05-13T13:49:24.558Z,43.13
2023-05-13T13:52:10.091Z,43.50
2023-05-13T13:54:55.649Z,44.67
2023-05-13T13:57:42.466Z,44.60
2023-05-13T14:00:28.035Z,44.33
2023-05-13T14:03:13.486Z,45.14
2023-05-13T14:05:58.962Z,45.56
2023-05-13T14:08:45.391Z,45.90
2023-05-13T14:11:31.642Z,45.97
2023-05-13T14:14:17.155Z,46.33
2023-05-13T14:17:02.555Z,46.47
2023-05-13T14:19:51.208Z,46.53
2023-05-13T14:22:36.288Z,46.97
2023-05-13T14:25:21.982Z,47.01
2023-05-13T14:28:07.580Z,46.53
2023-05-13T14:30:55.544Z,46.99
2023-05-13T14:33:41.323Z,47.20
2023-05-13T14:36:27.308Z,47.56
2023-05-13T14:39:12.906Z,48.03
2023-05-13T14:41:58.558Z,47.61
2023-05-13T14:44:43.874Z,47.42
2023-05-13T14:47:29.621Z,46.99
2023-05-13T14:50:15.372Z,45.45
2023-05-13T14:53:00.788Z,45.03
2023-05-13T14:55:46.513Z,43.59
2023-05-13T14:58:34.631Z,44.34
2023-05-13T15:01:20.297Z,43.26
2023-05-13T15:04:07.354Z,42.79
2023-05-13T15:06:55.525Z,42.53
2023-05-13T15:09:40.802Z,43.00
2023-05-13T15:12:26.350Z,42.19
2023-05-13T15:15:12.057Z,41.54
2023-05-13T15:17:57.421Z,42.81
2023-05-13T15:20:44.805Z,45.06
2023-05-13T15:23:30.146Z,44.16
2023-05-13T15:26:15.655Z,42.18
2023-05-13T15:29:00.983Z,41.92
2023-05-13T15:31:48.730Z,40.43
2023-05-13T15:34:34.325Z,40.80
2023-05-13T15:37:20.073Z,40.83
2023-05-13T15:40:06.396Z,39.95
2023-05-13T15:42:51.867Z,38.72
2023-05-13T15:45:39.517Z,37.24
2023-05-13T15:48:25.682Z,35.82
2023-05-13T15:51:11.614Z,31.16
2023-05-13T15:53:57.364Z,29.70
2023-05-13T15:56:42.832Z,29.25
2023-05-13T15:59:28.202Z,27.82
2023-05-13T16:02:13.734Z,28.31
2023-05-13T16:04:59.172Z,28.26
2023-05-13T16:07:45.484Z,28.30
2023-05-13T16:10:31.458Z,27.60
2023-05-13T16:13:16.882Z,28.68
2023-05-13T16:16:02.797Z,32.11
2023-05-13T16:18:48.725Z,36.01
2023-05-13T16:21:34.493Z,37.42
2023-05-13T16:24:20.102Z,38.42
2023-05-13T16:27:05.510Z,39.94
2023-05-13T16:29:51.526Z,40.28
2023-05-13T16:32:37.175Z,41.08
2023-05-13T16:35:22.503Z,42.45
2023-05-13T16:38:07.865Z,42.42
2023-05-13T16:40:53.341Z,42.40
2023-05-13T16:43:38.788Z,43.18
2023-05-13T16:46:24.129Z,43.74
2023-05-13T16:49:09.596Z,44.86
2023-05-13T16:51:55.048Z,45.30
2023-05-13T16:54:40.312Z,44.14
2023-05-13T16:57:25.723Z,42.58
2023-05-13T17:00:16.247Z,43.04
2023-05-13T17:03:03.330Z,42.85
2023-05-13T17:05:49.067Z,42.60
2023-05-13T17:08:34.653Z,43.46
2023-05-13T17:11:20.829Z,43.96
2023-05-13T17:14:06.440Z,42.56
2023-05-13T17:16:52.487Z,41.95
2023-05-13T17:19:38.269Z,42.58
2023-05-13T17:22:24.084Z,42.04
2023-05-13T17:25:09.966Z,41.70
2023-05-13T17:27:55.280Z,41.70
2023-05-13T17:30:41.813Z,42.11
2023-05-13T17:33:27.508Z,42.26
2023-05-13T17:36:13.045Z,42.78
2023-05-13T17:38:58.601Z,42.88
2023-05-13T17:41:43.790Z,43.81
2023-05-13T17:44:29.427Z,44.29
2023-05-13T17:47:16.547Z,44.45
2023-05-13T17:50:02.218Z,44.50
2023-05-13T17:52:47.616Z,44.51
2023-05-13T17:55:33.380Z,44.58
2023-05-13T17:58:18.913Z,44.69
2023-05-13T18:01:04.255Z,45.32
2023-05-13T18:03:49.682Z,45.44
2023-05-13T18:06:35.671Z,46.01
2023-05-13T18:09:21.036Z,46.35
2023-05-13T18:12:06.664Z,46.45
2023-05-13T18:14:52.332Z,46.93
2023-05-13T18:17:38.026Z,46.82
2023-05-13T18:20:23.815Z,46.75
2023-05-13T18:23:09.444Z,46.24
2023-05-13T18:25:56.275Z,46.45
2023-05-13T18:28:44.324Z,46.87
2023-05-13T18:31:34.052Z,47.34
2023-05-13T18:34:22.026Z,47.97
2023-05-13T18:37:08.157Z,48.19
2023-05-13T18:39:53.295Z,48.63
2023-05-13T18:42:38.913Z,48.72
2023-05-13T18:45:24.219Z,49.15
2023-05-13T18:48:10.046Z,49.53
2023-05-13T18:50:57.054Z,49.77
2023-05-13T18:53:43.104Z,50.15
2023-05-13T18:56:28.695Z,50.56
2023-05-13T18:59:14.311Z,51.07
2023-05-13T19:01:59.990Z,51.07
2023-05-13T19:04:45.524Z,51.46
2023-05-13T19:07:31.142Z,50.99
2023-05-13T19:10:17.514Z,51.49
2023-05-13T19:13:03.074Z,51.96
2023-05-13T19:15:48.927Z,52.07
2023-05-13T19:18:34.312Z,53.14
2023-05-13T19:21:21.402Z,53.25
2023-05-13T19:24:07.942Z,53.63
2023-05-13T19:26:53.570Z,53.48
2023-05-13T19:29:39.008Z,53.64
2023-05-13T19:32:24.522Z,53.58
2023-05-13T19:35:10.858Z,53.56
2023-05-13T19:37:56.380Z,53.81
2023-05-13T19:40:44.084Z,53.81
2023-05-13T19:43:29.864Z,54.05
2023-05-13T19:46:15.673Z,53.77
2023-05-13T19:49:01.295Z,54.24
2023-05-13T19:51:46.480Z,54.20
2023-05-13T19:54:32.102Z,54.38
2023-05-13T19:57:17.769Z,54.69
2023-05-13T20:00:05.048Z,54.70
2023-05-13T20:02:54.128Z,54.85
2023-05-13T20:05:42.690Z,55.40
2023-05-13T20:08:30.910Z,55.46
2023-05-13T20:11:17.044Z,55.75
2023-05-13T20:14:02.280Z,56.31
2023-05-13T20:16:47.855Z,56.94
2023-05-13T20:19:34.716Z,57.45
2023-05-13T20:22:21.858Z,57.70
2023-05-13T20:25:09.209Z,58.10
2023-05-13T20:27:54.465Z,58.66
2023-05-13T20:30:42.192Z,59.13
2023-05-13T20:33:27.987Z,59.02
2023-05-13T20:36:13.284Z,59.66
2023-05-13T20:38:58.644Z,59.95
2023-05-13T20:41:44.021Z,60.00
2023-05-13T20:44:29.410Z,59.60
2023-05-13T20:47:15.273Z,60.22
2023-05-13T20:50:00.773Z,60.22
2023-05-13T20:52:46.109Z,60.15
2023-05-13T20:55:31.498Z,60.28
2023-05-13T20:58:16.902Z,60.95
2023-05-13T21:01:03.793Z,61.43
2023-05-13T21:03:50.229Z,61.59
2023-05-13T21:06:36.106Z,62.09
2023-05-13T21:09:21.687Z,62.18
2023-05-13T21:12:07.173Z,61.92
2023-05-13T21:14:52.530Z,61.96
2023-05-13T21:17:38.249Z,62.49
2023-05-13T21:20:24.426Z,62.83
2023-05-13T21:23:10.410Z,63.06
2023-05-13T21:25:55.890Z,62.38
2023-05-13T21:28:41.525Z,62.54
2023-05-13T21:31:26.828Z,63.46
2023-05-13T21:34:13.508Z,64.11
2023-05-13T21:36:59.237Z,64.43
2023-05-13T21:39:44.614Z,63.88
2023-05-13T21:42:30.426Z,63.92
2023-05-13T21:45:15.919Z,64.43
2023-05-13T21:48:01.587Z,63.05
2023-05-13T21:50:46.739Z,62.85
2023-05-13T21:53:33.400Z,62.93
2023-05-13T21:56:19.147Z,62.37
2023-05-13T21:59:04.374Z,62.14
2023-05-13T22:01:49.952Z,61.69
2023-05-13T22:04:35.259Z,61.29
2023-05-13T22:07:20.696Z,61.09
2023-05-13T22:10:07.214Z,61.15
2023-05-13T22:12:52.960Z,61.29
2023-05-13T22:15:39.235Z,61.72
2023-05-13T22:18:25.073Z,61.30
2023-05-13T22:21:10.873Z,61.62
2023-05-13T22:23:56.230Z,61.32
2023-05-13T22:26:43.208Z,62.00
2023-05-13T22:29:28.360Z,62.30
2023-05-13T22:32:14.135Z,62.68
2023-05-13T22:35:00.199Z,62.74
2023-05-13T22:37:45.746Z,63.29
2023-05-13T22:40:31.305Z,63.85
2023-05-13T22:43:16.683Z,63.75
2023-05-13T22:46:02.387Z,63.15
2023-05-13T22:48:48.085Z,63.84
2023-05-13T22:51:33.599Z,63.59
2023-05-13T22:54:18.733Z,63.93
2023-05-13T22:57:04.278Z,64.14
2023-05-13T22:59:49.540Z,63.69
2023-05-13T23:02:35.074Z,63.98
2023-05-13T23:05:20.363Z,63.96
2023-05-13T23:08:06.026Z,63.77
2023-05-13T23:10:51.622Z,63.81
2023-05-13T23:13:38.739Z,63.87
2023-05-13T23:16:24.297Z,63.22
2023-05-13T23:19:10.302Z,62.94
2023-05-13T23:21:55.953Z,63.04
2023-05-13T23:24:41.200Z,63.71
2023-05-13T23:27:26.905Z,63.66
2023-05-13T23:30:12.856Z,63.76
2023-05-13T23:32:58.429Z,63.76
2023-05-13T23:35:43.803Z,64.22
2023-05-13T23:38:29.391Z,64.04
2023-05-13T23:41:15.158Z,64.00
2023-05-13T23:44:01.294Z,63.81
2023-05-13T23:46:47.352Z,63.23
2023-05-13T23:49:32.430Z,63.88
2023-05-13T23:52:20.225Z,63.95
2023-05-13T23:55:07.306Z,63.45
2023-05-13T23:57:52.458Z,63.31
